Time;durP1;ratioP1;P1;durP2;ratioP2;P2;SDS_P1;SDS_P2;PMS_P1;PMS_P2;Temp;Humidity;BMP_temperature;BMP_pressure;BME280_temperature;BME280_humidity;BME280_pressure;Samples;Min_cycle;Max_cycle;Signal;HPM_P1;HPM_P2
2023/10/19 00:01:37;;;;;;;7.03;2.87;;;;;7.40;95946.00;;;;5091915;28;20557;-70
2023/10/19 00:04:26;;;;;;;159.37;82.97;;;;;7.20;95943.00;;;;5077839;28;20739;-70
2023/10/19 00:07:16;;;;;;;155.03;94.37;;;;;7.00;95931.00;;;;5086464;28;20210;-70
2023/10/19 00:10:06;;;;;;;244.10;138.97;;;;;6.90;95940.00;;;;5089708;28;20524;-70
2023/10/19 00:13:00;;;;;;;211.97;140.77;;;;;7.00;95934.00;;;;5082170;28;20524;-70
2023/10/19 00:15:51;;;;;;;189.53;115.77;;;;;7.20;95918.00;;;;5090540;28;20207;-70
2023/10/19 00:18:42;;;;;;;111.00;71.57;;;;;7.50;95918.00;;;;5090727;28;20996;-70
2023/10/19 00:21:48;;;;;;;70.83;59.37;;;;;7.30;95916.00;;;;5097115;28;20894;-70
2023/10/19 00:24:38;;;;;;;126.97;85.80;;;;;7.10;95913.00;;;;5072555;28;20849;-70
2023/10/19 00:27:27;;;;;;;58.13;40.07;;;;;6.90;95909.00;;;;5081165;28;20202;-70
2023/10/19 00:30:18;;;;;;;187.03;117.37;;;;;7.30;95897.00;;;;5085777;28;20223;-70
2023/10/19 00:33:16;;;;;;;32.87;26.97;;;;;7.50;95892.00;;;;5090153;28;20948;-70
2023/10/19 00:36:07;;;;;;;11.80;4.43;;;;;7.30;95893.00;;;;5096626;28;20676;-70
2023/10/19 00:38:57;;;;;;;12.90;4.80;;;;;6.90;95884.00;;;;5086654;28;20252;-70
2023/10/19 00:41:47;;;;;;;6.77;2.70;;;;;6.80;95878.00;;;;5082283;28;20580;-70
2023/10/19 00:44:41;;;;;;;7.37;2.93;;;;;7.30;95870.00;;;;5092859;28;20681;-70
2023/10/19 00:47:39;;;;;;;7.53;3.03;;;;;7.70;95871.00;;;;5083083;28;20214;-70
2023/10/19 00:50:31;;;;;;;9.33;3.67;;;;;7.90;95870.00;;;;5088009;28;20223;-70
2023/10/19 00:53:20;;;;;;;6.80;2.60;;;;;7.30;95854.00;;;;5092118;28;20824;-70
2023/10/19 00:56:10;;;;;;;10.77;4.03;;;;;7.40;95857.00;;;;5090721;28;20202;-70
2023/10/19 00:59:07;;;;;;;9.63;3.73;;;;;7.40;95864.00;;;;5079302;28;20227;-70
2023/10/19 01:02:04;;;;;;;7.93;3.13;;;;;7.60;95848.00;;;;5089093;28;20202;-70
2023/10/19 01:04:59;;;;;;;13.30;4.93;;;;;7.20;95835.00;;;;5079256;28;20227;-71
2023/10/19 01:07:56;;;;;;;14.60;5.40;;;;;7.20;95839.00;;;;5093109;28;20210;-70
2023/10/19 01:10:46;;;;;;;6.90;2.60;;;;;7.00;95826.00;;;;5094032;28;20231;-70
2023/10/19 01:13:35;;;;;;;5.80;2.40;;;;;7.40;95826.00;;;;5090046;28;20205;-70
2023/10/19 01:16:24;;;;;;;5.77;2.50;;;;;7.30;95817.00;;;;5093035;28;20209;-70
2023/10/19 01:19:18;;;;;;;6.13;2.60;;;;;7.60;95823.00;;;;5080362;28;20210;-70
2023/10/19 01:22:07;;;;;;;2.27;1.17;;;;;7.70;95813.00;;;;5088984;28;20207;-70
2023/10/19 01:24:58;;;;;;;10.33;4.20;;;;;7.80;95803.00;;;;5091541;28;20206;-70
2023/10/19 01:27:49;;;;;;;7.87;3.13;;;;;7.40;95797.00;;;;5083571;28;20620;-70
2023/10/19 01:30:39;;;;;;;4.10;1.87;;;;;7.20;95809.00;;;;5084866;28;20720;-70
2023/10/19 01:33:28;;;;;;;5.83;2.53;;;;;7.30;95808.00;;;;5085740;28;20207;-70
2023/10/19 01:36:24;;;;;;;5.83;2.57;;;;;7.10;95793.00;;;;5088655;28;20233;-70
2023/10/19 01:39:12;;;;;;;1.50;0.83;;;;;7.20;95801.00;;;;5081123;28;20215;-70
2023/10/19 01:42:05;;;;;;;5.70;2.47;;;;;7.10;95789.00;;;;5092664;28;20222;-70
2023/10/19 01:44:53;;;;;;;10.07;4.40;;;;;7.10;95786.00;;;;5088968;28;20214;-70
2023/10/19 01:47:42;;;;;;;4.97;2.30;;;;;6.70;95775.00;;;;5089321;28;20309;-70
2023/10/19 01:50:30;;;;;;;7.27;3.07;;;;;6.60;95785.00;;;;5096992;28;20226;-70
2023/10/19 01:53:25;;;;;;;3.40;1.60;;;;;6.30;95774.00;;;;5093301;28;20221;-70
2023/10/19 01:56:15;;;;;;;7.10;2.93;;;;;6.50;95767.00;;;;5079750;28;20212;-70
2023/10/19 01:59:07;;;;;;;88.80;62.43;;;;;6.60;95762.00;;;;5079836;28;20227;-71
2023/10/19 02:01:57;;;;;;;57.93;49.53;;;;;6.80;95770.00;;;;5072128;28;20235;-70
2023/10/19 02:04:49;;;;;;;162.67;129.17;;;;;6.60;95757.00;;;;5083927;28;20215;-70
2023/10/19 02:07:37;;;;;;;6.47;2.57;;;;;6.60;95751.00;;;;5086722;28;20211;-70
2023/10/19 02:10:27;;;;;;;7.50;3.13;;;;;6.50;95755.00;;;;5077943;28;20220;-70
2023/10/19 02:13:15;;;;;;;47.13;34.90;;;;;7.10;95745.00;;;;5078260;28;20207;-70
2023/10/19 02:16:08;;;;;;;181.87;159.20;;;;;7.10;95748.00;;;;5092436;28;20207;-70
2023/10/19 02:18:56;;;;;;;10.97;4.17;;;;;6.60;95746.00;;;;5068926;28;20449;-70
2023/10/19 02:21:47;;;;;;;6.40;2.70;;;;;6.80;95753.00;;;;5076910;28;20199;-70
2023/10/19 02:24:36;;;;;;;5.73;2.43;;;;;7.00;95748.00;;;;5097741;28;20727;-70
2023/10/19 02:27:24;;;;;;;6.47;2.73;;;;;7.20;95734.00;;;;5073122;28;20566;-70
2023/10/19 02:30:18;;;;;;;4.03;2.00;;;;;7.00;95736.00;;;;5097010;23;20711;-67
2023/10/19 02:33:08;;;;;;;5.43;2.40;;;;;6.50;95735.00;;;;5076053;28;20215;-68
2023/10/19 02:35:57;;;;;;;15.50;6.23;;;;;6.40;95718.00;;;;5078575;28;20668;-68
2023/10/19 02:38:48;;;;;;;5.67;4.70;;;;;6.00;95704.00;;;;5077942;28;20220;-68
2023/10/19 02:41:38;;;;;;;4.60;3.40;;;;;6.10;95710.00;;;;5065478;28;20207;-67
2023/10/19 02:44:27;;;;;;;6.30;2.80;;;;;5.80;95704.00;;;;5069757;28;20204;-68
2023/10/19 02:47:17;;;;;;;5.90;2.60;;;;;6.30;95709.00;;;;5067058;28;20207;-68
2023/10/19 02:50:11;;;;;;;9.25;3.95;;;;;6.70;95714.00;;;;5058104;28;20228;-68
2023/10/19 02:53:00;;;;;;;10.23;4.30;;;;;7.00;95700.00;;;;5053007;28;20197;-68
2023/10/19 02:55:51;;;;;;;6.33;4.80;;;;;7.00;95701.00;;;;5062258;28;20205;-68
2023/10/19 02:58:42;;;;;;;25.73;19.17;;;;;6.40;95689.00;;;;5060582;28;20215;-68
2023/10/19 03:01:33;;;;;;;18.07;16.40;;;;;6.50;95689.00;;;;5065528;28;20195;-68
2023/10/19 03:04:22;;;;;;;29.17;26.37;;;;;6.50;95682.00;;;;5063664;28;20208;-68
2023/10/19 03:07:13;;;;;;;8.40;3.93;;;;;6.00;95694.00;;;;5052573;28;20200;-67
2023/10/19 03:10:02;;;;;;;11.57;5.13;;;;;5.80;95686.00;;;;5057942;28;20673;-68
2023/10/19 03:12:52;;;;;;;14.57;9.37;;;;;6.30;95691.00;;;;5055230;28;20228;-68
2023/10/19 03:15:43;;;;;;;32.00;28.43;;;;;6.40;95686.00;;;;5054374;28;20219;-68
2023/10/19 03:18:32;;;;;;;69.33;51.57;;;;;6.00;95687.00;;;;5062409;28;20204;-67
2023/10/19 03:21:26;;;;;;;34.27;30.70;;;;;6.30;95674.00;;;;5058486;28;20720;-68
2023/10/19 03:24:35;;;;;;;30.77;27.83;;;;;6.40;95669.00;;;;5057509;28;20196;-68
2023/10/19 03:27:23;;;;;;;35.83;32.30;;;;;6.60;95673.00;;;;5063426;28;20426;-68
2023/10/19 03:30:16;;;;;;;45.63;40.87;;;;;6.70;95674.00;;;;5054043;28;20477;-68
2023/10/19 03:33:05;;;;;;;54.40;47.53;;;;;6.60;95680.00;;;;5062033;28;20477;-68
2023/10/19 03:35:54;;;;;;;71.60;53.97;;;;;6.80;95680.00;;;;5066887;28;20214;-68
2023/10/19 03:38:44;;;;;;;107.70;84.10;;;;;6.80;95666.00;;;;5061771;28;20211;-68
2023/10/19 03:41:36;;;;;;;4.30;3.97;;;;;6.20;95655.00;;;;5061538;28;20203;-68
2023/10/19 03:44:25;;;;;;;5.67;2.60;;;;;5.90;95659.00;;;;5061403;28;20203;-67
2023/10/19 03:47:18;;;;;;;3.63;2.00;;;;;6.00;95658.00;;;;5067436;28;20202;-67
2023/10/19 03:50:13;;;;;;;6.03;3.03;;;;;6.10;95656.00;;;;5065238;28;20234;-67
2023/10/19 03:53:04;;;;;;;4.00;2.27;;;;;6.20;95654.00;;;;5065247;28;20220;-68
2023/10/19 03:55:54;;;;;;;5.67;3.00;;;;;6.10;95645.00;;;;5058858;28;20204;-67
2023/10/19 03:58:50;;;;;;;3.50;2.03;;;;;6.10;95655.00;;;;5058031;28;20216;-67
2023/10/19 04:01:39;;;;;;;4.23;2.20;;;;;5.90;95641.00;;;;5058640;28;20323;-68
2023/10/19 04:04:29;;;;;;;3.80;2.07;;;;;5.50;95623.00;;;;5056819;28;20207;-68
2023/10/19 04:07:20;;;;;;;3.80;2.03;;;;;6.00;95626.00;;;;5052505;28;20689;-68
2023/10/19 04:10:29;;;;;;;3.63;1.93;;;;;5.80;95626.00;;;;5063959;28;20430;-67
2023/10/19 04:13:19;;;;;;;3.27;1.87;;;;;5.50;95606.00;;;;5052713;28;20228;-68
2023/10/19 04:16:10;;;;;;;4.97;3.20;;;;;5.70;95622.00;;;;5056655;28;20566;-68
2023/10/19 04:18:59;;;;;;;5.00;3.00;;;;;5.90;95609.00;;;;5060061;28;20453;-68
2023/10/19 04:21:50;;;;;;;3.83;2.23;;;;;5.90;95618.00;;;;5058565;28;20442;-67
2023/10/19 04:24:39;;;;;;;2.97;2.00;;;;;5.30;95610.00;;;;5063757;28;20430;-68
2023/10/19 04:27:32;;;;;;;4.60;2.70;;;;;5.80;95609.00;;;;5066055;28;20509;-67
2023/10/19 04:30:22;;;;;;;2.77;1.83;;;;;6.10;95613.00;;;;5025680;28;1231228;-68
2023/10/19 04:33:16;;;;;;;2.60;1.77;;;;;6.30;95609.00;;;;5067312;28;20228;-67
2023/10/19 04:36:08;;;;;;;3.60;2.50;;;;;6.00;95604.00;;;;5069616;28;20427;-67
2023/10/19 04:38:57;;;;;;;4.30;2.73;;;;;5.90;95612.00;;;;5066634;28;20446;-67
2023/10/19 04:41:48;;;;;;;2.57;1.60;;;;;5.30;95593.00;;;;5068617;28;20422;-67
2023/10/19 04:44:37;;;;;;;2.13;1.47;;;;;5.60;95590.00;;;;5060149;28;20211;-67
2023/10/19 04:47:26;;;;;;;3.00;1.90;;;;;5.80;95583.00;;;;5065692;28;20426;-66
2023/10/19 04:50:16;;;;;;;1.90;1.43;;;;;5.70;95584.00;;;;5063888;28;20457;-67
2023/10/19 04:53:05;;;;;;;4.53;3.13;;;;;5.50;95567.00;;;;5067244;28;20220;-68
2023/10/19 04:55:54;;;;;;;6.87;4.13;;;;;6.20;95569.00;;;;5064896;28;20444;-67
2023/10/19 04:58:43;;;;;;;3.23;2.10;;;;;5.90;95577.00;;;;5064496;28;20461;-67
2023/10/19 05:01:33;;;;;;;3.10;2.10;;;;;6.10;95572.00;;;;5066895;28;20215;-67
2023/10/19 05:04:24;;;;;;;2.63;1.70;;;;;5.70;95566.00;;;;5069287;28;20214;-67
2023/10/19 05:07:16;;;;;;;2.07;1.57;;;;;5.50;95561.00;;;;5068028;28;20211;-68
2023/10/19 05:10:06;;;;;;;4.23;2.93;;;;;5.60;95573.00;;;;5063994;28;20258;-67
2023/10/19 05:12:55;;;;;;;4.50;2.87;;;;;5.30;95567.00;;;;5064157;28;20287;-67
2023/10/19 05:15:44;;;;;;;3.00;2.10;;;;;6.10;95571.00;;;;5069310;28;20437;-67
2023/10/19 05:18:33;;;;;;;3.00;2.03;;;;;5.70;95567.00;;;;5063824;28;20423;-67
2023/10/19 05:21:23;;;;;;;3.30;2.23;;;;;5.20;95555.00;;;;5057845;28;20439;-67
2023/10/19 05:24:13;;;;;;;2.47;1.77;;;;;5.20;95559.00;;;;5063032;28;20411;-68
2023/10/19 05:27:02;;;;;;;3.70;2.65;;;;;5.60;95567.00;;;;5058137;28;20430;-67
2023/10/19 05:29:51;;;;;;;2.77;1.90;;;;;5.80;95560.00;;;;5066634;28;20236;-67
2023/10/19 05:32:40;;;;;;;2.30;1.67;;;;;5.70;95558.00;;;;5065939;28;20492;-67
2023/10/19 05:35:34;;;;;;;4.50;2.80;;;;;5.60;95561.00;;;;5064479;28;20778;-67
2023/10/19 05:38:24;;;;;;;2.87;1.90;;;;;5.60;95563.00;;;;5059931;28;20462;-66
2023/10/19 05:41:14;;;;;;;3.10;2.10;;;;;5.90;95552.00;;;;5060378;28;20443;-68
2023/10/19 05:44:03;;;;;;;3.83;2.60;;;;;5.90;95558.00;;;;5062159;28;20428;-67
2023/10/19 05:46:54;;;;;;;3.43;2.20;;;;;5.50;95544.00;;;;5063889;28;20764;-66
2023/10/19 05:49:43;;;;;;;3.00;2.03;;;;;5.60;95554.00;;;;5061930;28;20457;-66
2023/10/19 05:52:32;;;;;;;3.37;2.17;;;;;5.50;95550.00;;;;5059455;28;20220;-67
2023/10/19 05:55:22;;;;;;;3.07;2.07;;;;;5.40;95538.00;;;;5061496;28;20453;-67
2023/10/19 05:58:12;;;;;;;3.00;1.97;;;;;5.70;95551.00;;;;5057706;28;20202;-67
2023/10/19 06:01:01;;;;;;;3.33;2.27;;;;;6.20;95558.00;;;;5064193;28;20431;-66
2023/10/19 06:03:51;;;;;;;3.40;2.20;;;;;5.70;95550.00;;;;5063563;28;20441;-65
2023/10/19 06:06:41;;;;;;;3.77;2.60;;;;;5.60;95551.00;;;;5065926;28;20431;-67
2023/10/19 06:09:30;;;;;;;2.80;1.80;;;;;6.00;95547.00;;;;5062354;28;20622;-68
2023/10/19 06:12:19;;;;;;;3.70;2.27;;;;;5.50;95548.00;;;;5054856;28;20434;-66
2023/10/19 06:15:11;;;;;;;4.63;3.03;;;;;5.80;95556.00;;;;5061017;28;20204;-67
2023/10/19 06:18:00;;;;;;;6.87;4.07;;;;;6.00;95551.00;;;;5057940;28;20212;-67
2023/10/19 06:20:51;;;;;;;3.63;2.10;;;;;5.80;95540.00;;;;5061762;28;20248;-66
2023/10/19 06:23:40;;;;;;;2.90;1.93;;;;;6.00;95535.00;;;;5062293;28;20216;-67
2023/10/19 06:26:29;;;;;;;3.20;2.07;;;;;5.50;95529.00;;;;5063795;28;20203;-67
2023/10/19 06:29:18;;;;;;;3.13;2.10;;;;;5.70;95534.00;;;;5060346;28;20228;-68
2023/10/19 06:32:09;;;;;;;4.60;3.00;;;;;6.00;95532.00;;;;5061075;28;20451;-67
2023/10/19 06:34:58;;;;;;;4.80;2.83;;;;;6.00;95537.00;;;;5061169;28;20457;-67
2023/10/19 06:37:47;;;;;;;2.40;1.60;;;;;6.20;95537.00;;;;5062382;28;20430;-68
2023/10/19 06:40:37;;;;;;;4.47;2.63;;;;;6.90;95540.00;;;;5067723;28;20446;-67
2023/10/19 06:43:28;;;;;;;3.07;1.80;;;;;7.30;95533.00;;;;5060211;28;20204;-67
2023/10/19 06:46:18;;;;;;;3.47;2.07;;;;;7.00;95525.00;;;;5061889;28;20723;-67
2023/10/19 06:49:08;;;;;;;5.07;2.80;;;;;6.80;95531.00;;;;5060228;28;20219;-67
2023/10/19 06:51:57;;;;;;;9.37;4.10;;;;;6.80;95514.00;;;;5063957;28;20227;-66
2023/10/19 06:54:46;;;;;;;7.17;3.40;;;;;7.00;95519.00;;;;5064862;28;20216;-67
2023/10/19 06:57:35;;;;;;;4.90;2.27;;;;;6.80;95521.00;;;;5063044;28;20207;-69
2023/10/19 07:00:26;;;;;;;4.40;2.23;;;;;6.70;95523.00;;;;5057365;28;20235;-68
2023/10/19 07:03:15;;;;;;;6.43;2.87;;;;;7.30;95512.00;;;;5059541;28;20196;-67
2023/10/19 07:06:07;;;;;;;7.83;3.90;;;;;7.50;95523.00;;;;5065639;28;20208;-67
2023/10/19 07:08:58;;;;;;;5.77;3.00;;;;;8.00;95517.00;;;;5064446;28;20227;-67
2023/10/19 07:11:47;;;;;;;2.60;1.80;;;;;8.20;95514.00;;;;5068448;28;20200;-67
2023/10/19 07:14:36;;;;;;;2.73;1.60;;;;;8.30;95509.00;;;;5060410;28;20227;-67
2023/10/19 07:17:25;;;;;;;3.10;1.93;;;;;8.70;95509.00;;;;5059920;28;20201;-67
2023/10/19 07:20:25;;;;;;;3.37;2.07;;;;;9.00;95520.00;;;;5050669;28;20224;-67
2023/10/19 07:23:19;;;;;;;3.13;1.87;;;;;8.90;95523.00;;;;5059772;28;20199;-67
2023/10/19 07:26:08;;;;;;;5.17;3.40;;;;;9.00;95526.00;;;;5063299;28;20208;-67
2023/10/19 07:28:57;;;;;;;5.73;3.33;;;;;9.40;95522.00;;;;5052280;28;20231;-68
2023/10/19 07:31:46;;;;;;;3.20;1.97;;;;;9.80;95519.00;;;;5055159;28;20200;-68
2023/10/19 07:34:35;;;;;;;4.00;2.17;;;;;9.70;95512.00;;;;5058990;28;20225;-67
2023/10/19 07:37:24;;;;;;;2.50;1.60;;;;;10.00;95524.00;;;;5065127;28;20211;-67
2023/10/19 07:40:15;;;;;;;3.07;1.83;;;;;9.40;95526.00;;;;5059141;28;20223;-68
2023/10/19 07:43:04;;;;;;;3.37;2.10;;;;;9.80;95531.00;;;;5052796;28;20219;-68
2023/10/19 07:45:53;;;;;;;3.10;1.93;;;;;10.10;95521.00;;;;5053997;28;20203;-68
2023/10/19 07:48:43;;;;;;;3.90;2.17;;;;;10.30;95515.00;;;;5057277;28;20215;-68
2023/10/19 07:51:31;;;;;;;4.17;2.13;;;;;11.00;95517.00;;;;5057395;28;20215;-67
2023/10/19 07:54:21;;;;;;;7.40;3.37;;;;;11.00;95516.00;;;;5059297;28;20612;-68
2023/10/19 07:57:12;;;;;;;6.90;3.30;;;;;11.20;95524.00;;;;5064227;28;20204;-68
2023/10/19 08:00:03;;;;;;;4.73;2.83;;;;;11.30;95517.00;;;;5059514;28;20623;-67
2023/10/19 08:02:55;;;;;;;2.83;1.83;;;;;11.70;95505.00;;;;5068709;28;20206;-67
2023/10/19 08:05:44;;;;;;;3.27;2.23;;;;;11.60;95502.00;;;;5061830;28;20210;-67
2023/10/19 08:08:35;;;;;;;4.13;2.20;;;;;11.80;95506.00;;;;5061558;28;20575;-68
2023/10/19 08:11:24;;;;;;;2.97;1.73;;;;;12.00;95492.00;;;;5071142;28;20203;-68
2023/10/19 08:14:14;;;;;;;4.83;2.40;;;;;11.80;95490.00;;;;5064857;28;20609;-68
2023/10/19 08:17:04;;;;;;;6.40;3.20;;;;;11.60;95498.00;;;;5061100;28;20200;-68
2023/10/19 08:19:55;;;;;;;4.03;2.10;;;;;12.20;95500.00;;;;5069765;28;20284;-67
2023/10/19 08:22:46;;;;;;;5.03;2.40;;;;;12.50;95495.00;;;;5065014;28;20199;-67
2023/10/19 08:25:35;;;;;;;14.60;12.80;;;;;13.10;95492.00;;;;5057869;28;20201;-68
2023/10/19 08:28:36;;;;;;;9.17;6.87;;;;;13.30;95497.00;;;;5066327;28;20209;-68
2023/10/19 08:31:27;;;;;;;28.27;25.73;;;;;13.40;95497.00;;;;5064356;28;20211;-69
2023/10/19 08:34:17;;;;;;;5.13;2.87;;;;;13.50;95497.00;;;;5065006;28;20685;-70
2023/10/19 08:37:06;;;;;;;7.37;3.37;;;;;13.60;95493.00;;;;5064409;28;20211;-69
2023/10/19 08:39:55;;;;;;;5.30;2.53;;;;;13.40;95487.00;;;;5063737;28;20234;-69
2023/10/19 08:42:45;;;;;;;5.73;2.50;;;;;13.50;95498.00;;;;5059065;28;20187;-69
2023/10/19 08:45:35;;;;;;;9.00;3.73;;;;;13.60;95501.00;;;;5057105;28;20196;-69
2023/10/19 08:48:26;;;;;;;5.83;2.50;;;;;13.50;95506.00;;;;5062187;28;20204;-69
2023/10/19 08:51:16;;;;;;;4.00;1.90;;;;;13.90;95499.00;;;;5060256;28;20200;-70
2023/10/19 08:54:06;;;;;;;7.47;3.43;;;;;14.10;95503.00;;;;5056955;28;20251;-70
2023/10/19 08:56:56;;;;;;;6.60;2.97;;;;;14.10;95512.00;;;;5058680;28;20221;-70
2023/10/19 08:59:46;;;;;;;6.27;2.93;;;;;14.30;95492.00;;;;5064641;28;20731;-70
2023/10/19 09:02:35;;;;;;;7.60;3.37;;;;;14.50;95489.00;;;;5070134;28;20567;-70
2023/10/19 09:05:26;;;;;;;7.33;3.43;;;;;14.60;95492.00;;;;5060488;28;20196;-69
2023/10/19 09:08:17;;;;;;;3.10;1.50;;;;;14.60;95490.00;;;;5068124;28;20204;-69
2023/10/19 09:11:08;;;;;;;6.53;3.20;;;;;14.60;95498.00;;;;5061753;28;20696;-69
2023/10/19 09:13:58;;;;;;;5.93;2.93;;;;;14.40;95501.00;;;;5056633;28;20215;-69
2023/10/19 09:16:56;;;;;;;5.83;4.10;;;;;14.60;95493.00;;;;5069146;28;20248;-70
2023/10/19 09:19:47;;;;;;;8.57;5.60;;;;;14.80;95499.00;;;;5057193;28;20819;-69
2023/10/19 09:22:44;;;;;;;8.97;5.13;;;;;14.90;95494.00;;;;5060065;28;20246;-69
2023/10/19 09:25:34;;;;;;;12.33;6.37;;;;;15.10;95496.00;;;;5065115;28;20267;-70
2023/10/19 09:28:24;;;;;;;4.63;3.47;;;;;14.90;95496.00;;;;5063490;28;20209;-70
2023/10/19 09:31:13;;;;;;;9.80;6.70;;;;;15.40;95487.00;;;;5052775;28;20592;-70
2023/10/19 09:34:05;;;;;;;15.10;10.23;;;;;15.60;95490.00;;;;5061161;28;20206;-69
2023/10/19 09:36:54;;;;;;;10.27;9.13;;;;;15.60;95495.00;;;;5064811;28;20207;-70
2023/10/19 09:39:45;;;;;;;10.50;9.07;;;;;15.60;95489.00;;;;5060720;28;20220;-70
2023/10/19 09:42:34;;;;;;;6.80;6.17;;;;;15.70;95487.00;;;;5065401;28;20208;-70
2023/10/19 09:45:24;;;;;;;10.30;9.10;;;;;15.90;95478.00;;;;5063938;28;20200;-70
2023/10/19 09:48:16;;;;;;;7.17;3.77;;;;;16.00;95473.00;;;;5053398;28;20197;-70
2023/10/19 09:51:08;;;;;;;12.37;7.67;;;;;15.90;95474.00;;;;5054551;28;20707;-70
2023/10/19 09:54:15;;;;;;;13.40;7.33;;;;;16.00;95466.00;;;;5052274;28;20200;-70
2023/10/19 09:57:16;;;;;;;11.50;7.93;;;;;16.40;95465.00;;;;5064476;28;20200;-69
2023/10/19 10:00:11;;;;;;;8.77;6.33;;;;;16.40;95431.00;;;;5058301;28;20300;-70
2023/10/19 10:03:02;;;;;;;9.50;6.90;;;;;16.70;95439.00;;;;5062741;28;20305;-69
2023/10/19 10:05:51;;;;;;;10.03;8.17;;;;;16.60;95442.00;;;;5056804;28;20673;-70
2023/10/19 10:08:42;;;;;;;10.53;6.60;;;;;16.90;95441.00;;;;5063346;28;20220;-70
2023/10/19 10:11:31;;;;;;;13.93;12.63;;;;;17.70;95422.00;;;;5064022;28;20200;-70
2023/10/19 10:14:25;;;;;;;10.70;8.97;;;;;18.80;95414.00;;;;5052830;28;20672;-69
2023/10/19 10:17:19;;;;;;;6.23;2.97;;;;;19.40;95410.00;;;;5058281;28;20588;-70
2023/10/19 10:20:34;;;;;;;47.20;44.55;;;;;19.40;95407.00;;;;5057647;28;20421;-70
2023/10/19 10:23:26;;;;;;;5.33;2.50;;;;;19.40;95434.00;;;;5053867;28;20211;-70
2023/10/19 10:26:16;;;;;;;1.90;1.00;;;;;19.10;95424.00;;;;5059759;28;20227;-70
2023/10/19 10:29:14;;;;;;;7.13;3.63;;;;;19.00;95422.00;;;;5065324;28;20244;-70
2023/10/19 10:32:07;;;;;;;7.50;3.77;;;;;18.50;95424.00;;;;5064387;28;20249;-70
2023/10/19 10:34:56;;;;;;;5.83;2.93;;;;;17.50;95413.00;;;;5066621;28;20200;-70
2023/10/19 10:37:55;;;;;;;4.87;2.50;;;;;17.90;95414.00;;;;5057549;28;20204;-70
2023/10/19 10:40:45;;;;;;;4.13;2.07;;;;;17.60;95409.00;;;;5069010;28;20231;-70
2023/10/19 10:43:34;;;;;;;2.87;1.50;;;;;18.00;95405.00;;;;5068701;28;20204;-70
2023/10/19 10:46:24;;;;;;;1.37;0.90;;;;;18.00;95399.00;;;;5064104;28;20230;-70
2023/10/19 10:49:17;;;;;;;4.83;2.87;;;;;18.20;95407.00;;;;5058699;28;20219;-70
2023/10/19 10:52:06;;;;;;;4.70;2.63;;;;;18.10;95400.00;;;;5060665;28;20219;-70
2023/10/19 10:54:55;;;;;;;4.37;2.30;;;;;17.70;95392.00;;;;5063246;28;20203;-70
2023/10/19 10:57:45;;;;;;;2.63;1.57;;;;;16.90;95391.00;;;;5066907;28;20212;-70
2023/10/19 11:00:36;;;;;;;3.87;2.33;;;;;17.20;95392.00;;;;5065607;28;20258;-70
2023/10/19 11:03:29;;;;;;;4.77;2.53;;;;;17.20;95386.00;;;;5064240;28;20203;-70
2023/10/19 11:06:20;;;;;;;3.17;1.93;;;;;17.10;95387.00;;;;5065736;28;20224;-69
2023/10/19 11:09:11;;;;;;;5.83;3.23;;;;;17.40;95388.00;;;;5057886;28;20677;-69
2023/10/19 11:12:01;;;;;;;4.63;2.73;;;;;17.40;95390.00;;;;5057456;28;20688;-70
2023/10/19 11:14:57;;;;;;;4.17;2.40;;;;;17.30;95375.00;;;;5060794;28;20227;-70
2023/10/19 11:17:47;;;;;;;2.30;1.27;;;;;17.30;95367.00;;;;5060593;28;20209;-69
2023/10/19 11:20:36;;;;;;;4.30;2.57;;;;;17.60;95364.00;;;;5060051;28;20238;-70
2023/10/19 11:23:41;;;;;;;3.60;2.07;;;;;17.90;95360.00;;;;5062344;28;20852;-70
2023/10/19 11:26:30;;;;;;;3.63;2.00;;;;;18.50;95346.00;;;;5057491;28;20251;-70
2023/10/19 11:29:19;;;;;;;3.03;1.80;;;;;19.40;95339.00;;;;5060243;28;20224;-70
2023/10/19 11:32:08;;;;;;;6.33;3.40;;;;;19.60;95344.00;;;;5059835;28;20218;-70
2023/10/19 11:34:58;;;;;;;6.90;3.53;;;;;19.80;95349.00;;;;5058844;28;20204;-69
2023/10/19 11:37:48;;;;;;;1.60;1.00;;;;;19.70;95337.00;;;;5059415;28;20214;-69
2023/10/19 11:40:39;;;;;;;4.13;2.00;;;;;19.90;95338.00;;;;5057850;28;20716;-70
2023/10/19 11:43:28;;;;;;;4.27;2.30;;;;;20.40;95326.00;;;;5058087;28;20205;-71
2023/10/19 11:46:18;;;;;;;6.97;3.43;;;;;21.50;95300.00;;;;5050721;28;20298;-71
2023/10/19 11:49:09;;;;;;;11.20;5.23;;;;;21.90;95329.00;;;;5057736;28;20238;-70
2023/10/19 11:51:58;;;;;;;3.93;1.93;;;;;21.30;95319.00;;;;5057792;28;20204;-70
2023/10/19 11:54:47;;;;;;;5.63;2.73;;;;;22.80;95284.00;;;;5055161;28;20208;-71
2023/10/19 11:57:37;;;;;;;5.40;2.63;;;;;23.00;95300.00;;;;5059333;28;20207;-70
2023/10/19 12:00:33;;;;;;;5.57;2.70;;;;;23.90;95272.00;;;;5058746;28;20223;-70
2023/10/19 12:03:22;;;;;;;5.73;2.83;;;;;24.80;95272.00;;;;5055880;28;20208;-71
2023/10/19 12:06:13;;;;;;;16.87;8.90;;;;;25.80;95275.00;;;;5059183;28;20128;-71
2023/10/19 12:09:14;;;;;;;12.67;11.70;;;;;26.80;95255.00;;;;5058257;28;20223;-72
2023/10/19 12:12:05;;;;;;;79.33;75.70;;;;;27.70;95270.00;;;;5054806;28;20583;-71
2023/10/19 12:14:58;;;;;;;229.87;220.93;;;;;28.20;95271.00;;;;5065072;28;20207;-69
2023/10/19 12:17:47;;;;;;;324.37;311.57;;;;;28.60;95271.00;;;;5063802;28;20204;-69
2023/10/19 12:20:36;;;;;;;380.85;364.73;;;;;28.70;95280.00;;;;5065789;28;20208;-72
2023/10/19 12:23:26;;;;;;;373.77;359.15;;;;;27.90;95287.00;;;;5062253;28;20207;-71
2023/10/19 12:26:15;;;;;;;375.08;359.73;;;;;28.30;95285.00;;;;5053985;28;20718;-71
2023/10/19 12:29:07;;;;;;;330.33;317.00;;;;;28.40;95253.00;;;;5060319;28;20700;-71
2023/10/19 12:31:57;;;;;;;394.98;379.10;;;;;29.30;95243.00;;;;5063256;28;20211;-71
2023/10/19 12:34:50;;;;;;;529.58;504.33;;;;;29.40;95250.00;;;;5055395;28;20212;-71
2023/10/19 12:37:46;;;;;;;619.97;587.15;;;;;29.60;95251.00;;;;5063271;28;20200;-71
2023/10/19 12:40:35;;;;;;;642.63;607.17;;;;;29.00;95255.00;;;;5053920;28;20760;-71
2023/10/19 12:43:25;;;;;;;618.13;586.10;;;;;29.20;95239.00;;;;5054572;28;20207;-71
2023/10/19 12:46:15;;;;;;;605.38;574.53;;;;;29.10;95254.00;;;;5063179;28;20223;-72
2023/10/19 12:49:08;;;;;;;559.97;532.58;;;;;29.00;95241.00;;;;5056372;28;20720;-71
2023/10/19 12:51:57;;;;;;;527.30;503.05;;;;;29.60;95235.00;;;;5059843;28;20678;-71
2023/10/19 12:54:51;;;;;;;525.15;501.17;;;;;28.70;95216.00;;;;5059951;28;20211;-71
2023/10/19 12:57:40;;;;;;;504.10;482.13;;;;;29.50;95234.00;;;;5057494;28;20206;-71
2023/10/19 13:00:30;;;;;;;492.05;470.67;;;;;29.10;95257.00;;;;5064911;28;20315;-71
2023/10/19 13:03:21;;;;;;;461.98;442.58;;;;;28.80;95253.00;;;;5063454;28;20700;-71
2023/10/19 13:06:12;;;;;;;421.67;403.45;;;;;29.00;95237.00;;;;5062194;28;21784;-71
2023/10/19 13:09:01;;;;;;;458.80;438.77;;;;;28.10;95274.00;;;;5061639;28;20248;-72
2023/10/19 13:11:51;;;;;;;486.77;465.50;;;;;27.20;95266.00;;;;5069669;28;20202;-71
2023/10/19 13:14:43;;;;;;;394.92;378.55;;;;;25.80;95269.00;;;;5061693;28;20224;-70
2023/10/19 13:17:32;;;;;;;264.07;254.07;;;;;25.20;95272.00;;;;5061150;28;20830;-71
2023/10/19 13:20:23;;;;;;;176.50;169.63;;;;;25.00;95264.00;;;;5050290;28;20243;-70
2023/10/19 13:23:15;;;;;;;144.00;137.67;;;;;24.70;95261.00;;;;5058636;28;20205;-70
2023/10/19 13:26:16;;;;;;;115.27;108.97;;;;;24.90;95249.00;;;;5054439;28;20262;-70
2023/10/19 13:29:06;;;;;;;87.20;82.40;;;;;25.90;95245.00;;;;5059079;28;20291;-70
2023/10/19 13:31:55;;;;;;;105.23;100.60;;;;;26.90;95208.00;;;;5058525;28;20678;-70
2023/10/19 13:34:44;;;;;;;140.90;134.93;;;;;27.70;95221.00;;;;5062558;28;20587;-70
2023/10/19 13:37:34;;;;;;;244.00;234.60;;;;;27.30;95221.00;;;;5057966;28;20207;-71
2023/10/19 13:40:24;;;;;;;268.10;257.97;;;;;27.70;95217.00;;;;5055109;28;20223;-71
2023/10/19 13:43:14;;;;;;;258.63;248.13;;;;;26.70;95194.00;;;;5061153;28;20449;-70
2023/10/19 13:46:04;;;;;;;226.37;216.20;;;;;26.90;95220.00;;;;5054144;28;20206;-70
2023/10/19 13:48:54;;;;;;;459.80;438.67;;;;;27.50;95207.00;;;;5057188;28;20239;-71
2023/10/19 13:51:45;;;;;;;457.20;436.47;;;;;27.30;95240.00;;;;5057270;28;20204;-70
2023/10/19 13:54:34;;;;;;;368.87;353.80;;;;;26.60;95240.00;;;;5058143;28;20217;-70
2023/10/19 13:57:25;;;;;;;290.83;279.97;;;;;26.10;95223.00;;;;5059759;28;20200;-70
2023/10/19 14:00:19;;;;;;;255.50;244.93;;;;;25.60;95229.00;;;;5057535;28;20605;-70
2023/10/19 14:03:09;;;;;;;219.37;209.80;;;;;25.10;95227.00;;;;5056767;28;20199;-70
2023/10/19 14:05:58;;;;;;;204.60;196.27;;;;;24.90;95227.00;;;;5054179;28;20210;-70
2023/10/19 14:08:47;;;;;;;142.37;136.50;;;;;24.40;95213.00;;;;5056215;28;20227;-71
2023/10/19 14:11:36;;;;;;;131.83;126.33;;;;;23.90;95213.00;;;;5059861;28;20578;-70